Wylie, Texas
Current Conditions -  °F | °C
As of 2:15 PM on Thursday 29 Jan 2015 (Local Time) from KF46 Reporting Station
Clear Clear  
Wind Chill: 65°   Ceiling: Unl
Heat Index: 65°   Visibility: 10mi
Dew Point: 37°   Wind: 16mph
Humidity: 36%   Direction: 350°N
Pressure: 30.26"   Gusts: 23mph
Location:  33.02°N, 96.51°W
Report Text: KF46 292015Z AUTO 35014G20KT 10SM CLR 18/03 A3026 RMK AO2 T01820028
Loading
Personal Weather Stations






























Interactive Weather Map New forecast layout! Learn more

10-Day Weather Forecast

Advertisements
Track Severe Weather on mobile